createdAt,value
2019-05-13T00:01:06.833Z,93.40
2019-05-13T00:03:33.378Z,93.50
2019-05-13T00:06:04.253Z,93.40
2019-05-13T00:08:33.798Z,93.20
2019-05-13T00:11:04.388Z,93.60
2019-05-13T00:13:33.852Z,93.90
2019-05-13T00:16:03.799Z,94.20
2019-05-13T00:18:33.934Z,94.00
2019-05-13T00:21:03.809Z,93.80
2019-05-13T00:23:33.923Z,94.30
2019-05-13T00:26:03.828Z,93.80
2019-05-13T00:28:34.199Z,94.20
2019-05-13T00:31:03.620Z,94.30
2019-05-13T00:33:33.973Z,94.90
2019-05-13T00:36:04.052Z,94.90
2019-05-13T00:38:33.561Z,94.90
2019-05-13T00:41:03.716Z,95.00
2019-05-13T00:43:33.854Z,95.10
2019-05-13T00:46:03.856Z,94.90
2019-05-13T00:48:33.432Z,95.50
2019-05-13T00:51:03.791Z,95.30
2019-05-13T00:53:35.104Z,95.50
2019-05-13T00:56:04.046Z,95.70
2019-05-13T00:58:33.549Z,95.80
2019-05-13T01:01:03.643Z,95.10
2019-05-13T01:03:33.815Z,95.80
2019-05-13T01:06:04.274Z,95.80
2019-05-13T01:08:33.942Z,96.00
2019-05-13T01:11:04.243Z,95.70
2019-05-13T01:13:34.350Z,96.30
2019-05-13T01:16:03.721Z,95.80
2019-05-13T01:18:34.036Z,96.00
2019-05-13T01:21:04.444Z,96.40
2019-05-13T01:23:34.419Z,96.10
2019-05-13T01:26:04.059Z,96.10
2019-05-13T01:28:34.436Z,95.90
2019-05-13T01:31:04.168Z,96.80
2019-05-13T01:33:35.106Z,96.70
2019-05-13T01:36:05.284Z,96.70
2019-05-13T01:38:34.422Z,96.80
2019-05-13T01:41:04.425Z,96.90
2019-05-13T01:43:33.625Z,96.70
2019-05-13T01:46:04.484Z,96.60
2019-05-13T01:48:33.375Z,96.90
2019-05-13T01:51:03.862Z,96.90
2019-05-13T01:53:33.590Z,97.10
2019-05-13T01:56:03.918Z,97.20
2019-05-13T01:58:33.996Z,97.10
2019-05-13T02:01:05.018Z,96.90
2019-05-13T02:03:33.936Z,97.30
2019-05-13T02:06:03.751Z,97.20
2019-05-13T02:08:33.706Z,97.50
2019-05-13T02:11:04.291Z,97.40
2019-05-13T02:13:34.398Z,97.40
2019-05-13T02:16:04.313Z,97.50
2019-05-13T02:18:34.139Z,97.70
2019-05-13T02:21:05.203Z,97.80
2019-05-13T02:23:34.172Z,97.80
2019-05-13T02:26:04.497Z,97.70
2019-05-13T02:28:33.595Z,97.60
2019-05-13T02:31:02.398Z,98.00
2019-05-13T02:33:33.958Z,98.00
2019-05-13T02:36:03.008Z,97.80
2019-05-13T02:38:35.457Z,98.10
2019-05-13T02:41:03.287Z,98.10
2019-05-13T02:43:33.543Z,98.30
2019-05-13T02:46:04.262Z,98.20
2019-05-13T02:48:33.434Z,98.20
2019-05-13T02:51:03.648Z,98.30
2019-05-13T02:53:33.517Z,98.70
2019-05-13T02:56:03.512Z,98.60
2019-05-13T02:58:33.602Z,98.50
2019-05-13T03:01:03.332Z,98.70
2019-05-13T03:03:32.900Z,98.50
2019-05-13T03:06:02.983Z,98.90
2019-05-13T03:08:42.723Z,99.00
2019-05-13T03:11:03.212Z,99.00
2019-05-13T03:13:33.018Z,99.30
2019-05-13T03:16:27.243Z,99.10
2019-05-13T03:18:56.014Z,98.80
2019-05-13T03:21:24.770Z,98.80
2019-05-13T03:23:53.573Z,98.70
2019-05-13T03:26:23.429Z,98.80
2019-05-13T03:28:52.575Z,99.20
2019-05-13T03:31:26.539Z,99.20
2019-05-13T03:33:56.065Z,98.90
2019-05-13T03:36:25.899Z,98.90
2019-05-13T03:39:05.131Z,99.00
2019-05-13T03:41:27.289Z,98.90
2019-05-13T03:43:58.120Z,99.40
2019-05-13T03:46:28.877Z,99.20
2019-05-13T03:49:02.380Z,99.00
2019-05-13T03:51:32.679Z,99.00
2019-05-13T03:54:03.120Z,98.90
2019-05-13T03:56:33.046Z,99.00
2019-05-13T03:59:02.812Z,98.90
2019-05-13T04:01:32.687Z,99.20
2019-05-13T04:04:03.267Z,99.20
2019-05-13T04:06:32.669Z,99.00
2019-05-13T04:09:20.901Z,99.20
2019-05-13T04:11:33.050Z,99.20
2019-05-13T04:14:03.266Z,99.20
2019-05-13T04:16:32.490Z,99.00
2019-05-13T04:19:02.728Z,99.00
2019-05-13T04:21:33.833Z,99.30
2019-05-13T04:24:03.953Z,99.20
2019-05-13T04:26:33.539Z,99.50
2019-05-13T04:29:03.297Z,99.30
2019-05-13T04:31:33.263Z,99.40
2019-05-13T04:34:02.805Z,99.00
2019-05-13T04:36:32.097Z,99.00
2019-05-13T04:39:03.338Z,99.30
2019-05-13T04:41:33.200Z,99.40
2019-05-13T04:44:02.921Z,98.90
2019-05-13T04:46:52.304Z,99.40
2019-05-13T04:49:23.194Z,99.70
2019-05-13T04:51:52.499Z,99.90
2019-05-13T04:54:22.669Z,99.80
2019-05-13T04:56:52.713Z,99.90
2019-05-13T04:59:22.874Z,99.90
2019-05-13T05:02:22.704Z,99.90
2019-05-13T05:05:12.964Z,99.90
2019-05-13T05:07:55.290Z,99.90
2019-05-13T05:11:13.666Z,99.90
2019-05-13T05:14:12.045Z,99.90
2019-05-13T05:17:22.737Z,98.30
2019-05-13T05:20:29.065Z,92.80
2019-05-13T05:23:21.282Z,87.60
2019-05-13T05:26:03.718Z,76.30
2019-05-13T05:28:51.996Z,72.00
2019-05-13T05:31:41.440Z,65.30
2019-05-13T05:34:35.991Z,66.10
2019-05-13T05:37:43.833Z,63.40
2019-05-13T05:40:12.946Z,59.10
2019-05-13T05:42:44.189Z,55.20
2019-05-13T05:45:13.506Z,53.20
2019-05-13T05:47:43.953Z,49.20
2019-05-13T05:50:13.205Z,50.20
2019-05-13T05:52:43.750Z,48.20
2019-05-13T05:55:13.126Z,43.00
2019-05-13T05:57:42.602Z,41.30
2019-05-13T06:00:12.597Z,43.10
2019-05-13T06:02:43.787Z,42.00
2019-05-13T06:05:13.105Z,41.10
2019-05-13T06:07:42.451Z,40.10
2019-05-13T06:10:11.631Z,39.50
2019-05-13T06:12:42.369Z,39.00
2019-05-13T06:15:12.478Z,36.20
2019-05-13T06:17:41.985Z,36.20
2019-05-13T06:20:13.220Z,35.50
2019-05-13T06:22:42.571Z,35.30
2019-05-13T06:25:14.591Z,32.00
2019-05-13T06:27:42.376Z,34.30
2019-05-13T06:30:12.745Z,32.90
2019-05-13T06:32:41.998Z,31.00
2019-05-13T06:35:11.585Z,30.70
2019-05-13T06:37:41.504Z,30.10
2019-05-13T06:40:12.403Z,28.60
2019-05-13T06:42:41.797Z,26.70
2019-05-13T06:45:12.393Z,26.50
2019-05-13T06:47:41.458Z,26.20
2019-05-13T06:50:11.715Z,26.00
2019-05-13T06:52:42.443Z,25.00
2019-05-13T06:55:11.792Z,23.80
2019-05-13T06:57:42.230Z,23.00
2019-05-13T07:00:12.343Z,23.20
2019-05-13T07:02:42.702Z,22.30
2019-05-13T07:05:12.263Z,22.00
2019-05-13T07:07:42.351Z,21.20
2019-05-13T07:10:12.687Z,20.30
2019-05-13T07:12:41.770Z,19.70
2019-05-13T07:15:11.680Z,19.00
2019-05-13T07:17:41.623Z,19.10
2019-05-13T07:20:11.723Z,17.90
2019-05-13T07:22:42.059Z,16.90
2019-05-13T07:25:11.854Z,16.80
2019-05-13T07:27:42.384Z,16.20
2019-05-13T07:30:11.516Z,15.90
2019-05-13T07:32:42.055Z,15.60
2019-05-13T07:35:14.038Z,14.90
2019-05-13T07:37:43.297Z,14.80
2019-05-13T07:40:12.555Z,14.30
2019-05-13T07:42:42.060Z,13.90
2019-05-13T07:45:12.209Z,13.70
2019-05-13T07:47:41.951Z,12.90
2019-05-13T07:50:12.702Z,11.20
2019-05-13T07:52:42.416Z,13.20
2019-05-13T07:55:12.091Z,13.00
2019-05-13T07:57:42.491Z,12.70
2019-05-13T08:00:12.513Z,12.20
2019-05-13T08:02:41.893Z,11.50
2019-05-13T08:05:12.071Z,11.70
2019-05-13T08:07:42.162Z,11.20
2019-05-13T08:10:11.947Z,11.00
2019-05-13T08:12:41.366Z,10.40
2019-05-13T08:15:12.170Z,10.20
2019-05-13T08:17:47.379Z,10.00
2019-05-13T08:20:12.789Z,9.50
2019-05-13T08:22:42.425Z,9.20
2019-05-13T08:25:12.564Z,8.70
2019-05-13T08:27:42.149Z,8.10
2019-05-13T08:30:12.076Z,8.10
2019-05-13T08:32:41.912Z,7.30
2019-05-13T08:35:12.391Z,7.00
2019-05-13T08:37:41.587Z,6.90
2019-05-13T08:40:12.065Z,6.70
2019-05-13T08:42:41.663Z,6.40
2019-05-13T08:45:12.039Z,6.00
2019-05-13T08:47:41.962Z,6.10
2019-05-13T08:50:12.165Z,5.60
2019-05-13T08:52:42.232Z,5.50
2019-05-13T08:55:15.535Z,5.40
2019-05-13T08:57:42.578Z,5.30
2019-05-13T09:00:13.728Z,5.00
2019-05-13T09:02:42.749Z,4.70
2019-05-13T09:05:12.645Z,5.50
2019-05-13T09:07:41.710Z,5.10
2019-05-13T09:10:12.516Z,5.10
2019-05-13T09:12:43.341Z,4.90
2019-05-13T09:15:12.300Z,4.90
2019-05-13T09:17:42.468Z,4.60
2019-05-13T09:20:11.784Z,4.30
2019-05-13T09:22:41.250Z,4.10
2019-05-13T09:25:12.490Z,4.00
2019-05-13T09:27:42.469Z,3.50
2019-05-13T09:30:11.966Z,4.00
2019-05-13T09:32:42.532Z,3.90
2019-05-13T09:35:12.116Z,3.70
2019-05-13T09:37:42.316Z,3.00
2019-05-13T09:40:11.993Z,2.80
2019-05-13T09:42:49.201Z,2.40
2019-05-13T09:45:12.391Z,2.00
2019-05-13T09:47:41.859Z,2.80
2019-05-13T09:50:27.560Z,2.60
2019-05-13T09:52:42.860Z,2.60
2019-05-13T09:55:25.495Z,2.50
2019-05-13T09:57:43.082Z,1.90
2019-05-13T10:00:12.373Z,1.80
2019-05-13T10:02:42.676Z,1.60
2019-05-13T10:05:11.847Z,1.50
2019-05-13T10:07:42.529Z,1.40
2019-05-13T10:10:12.133Z,1.00
2019-05-13T10:12:42.530Z,1.60
2019-05-13T10:15:12.726Z,1.90
2019-05-13T10:17:42.764Z,1.20
2019-05-13T10:20:13.261Z,1.00
2019-05-13T10:22:42.157Z,1.10
2019-05-13T10:25:14.298Z,1.00
2019-05-13T10:27:43.417Z,1.00
2019-05-13T10:30:13.182Z,1.00
2019-05-13T10:32:42.723Z,1.00
2019-05-13T10:35:12.726Z,1.00
2019-05-13T10:37:42.132Z,1.00
2019-05-13T10:40:12.668Z,1.00
2019-05-13T10:42:43.290Z,1.00
2019-05-13T10:45:13.038Z,1.00
2019-05-13T10:47:42.440Z,1.00
2019-05-13T10:50:11.466Z,1.00
2019-05-13T10:52:42.694Z,1.00
2019-05-13T10:55:12.835Z,1.00
2019-05-13T10:57:42.385Z,1.30
2019-05-13T11:00:13.059Z,1.00
2019-05-13T11:02:42.307Z,1.00
2019-05-13T11:05:12.438Z,1.80
2019-05-13T11:07:42.135Z,1.50
2019-05-13T11:10:13.235Z,1.40
2019-05-13T11:12:42.442Z,1.20
2019-05-13T11:15:11.598Z,1.00
2019-05-13T11:17:42.681Z,1.10
2019-05-13T11:20:12.519Z,1.00
2019-05-13T11:22:41.581Z,1.20
2019-05-13T11:25:12.348Z,1.00
2019-05-13T11:27:42.277Z,1.00
2019-05-13T11:30:11.609Z,1.00
2019-05-13T11:32:42.716Z,1.40
2019-05-13T11:35:12.884Z,1.10
2019-05-13T11:37:43.509Z,1.00
2019-05-13T11:40:13.559Z,1.30
2019-05-13T11:42:42.366Z,1.50
2019-05-13T11:45:11.862Z,1.50
2019-05-13T11:47:41.496Z,1.80
2019-05-13T11:50:11.558Z,1.30
2019-05-13T11:52:42.432Z,2.10
2019-05-13T11:55:12.982Z,2.00
2019-05-13T11:57:44.463Z,1.70
2019-05-13T12:00:14.141Z,1.40
2019-05-13T12:02:49.812Z,2.50
2019-05-13T12:05:14.528Z,2.00
2019-05-13T12:07:43.308Z,1.80
2019-05-13T12:10:12.717Z,1.80
2019-05-13T12:12:43.906Z,2.10
2019-05-13T12:15:45.009Z,2.30
2019-05-13T12:17:43.497Z,2.00
2019-05-13T12:20:12.419Z,2.10
2019-05-13T12:22:42.636Z,1.70
2019-05-13T12:25:13.773Z,1.80
2019-05-13T12:27:42.842Z,2.50
2019-05-13T12:30:12.477Z,2.00
2019-05-13T12:32:43.911Z,2.40
2019-05-13T12:35:13.581Z,2.30
2019-05-13T12:37:42.729Z,2.10
2019-05-13T12:40:11.860Z,2.80
2019-05-13T12:42:46.216Z,3.20
2019-05-13T12:45:14.398Z,3.30
2019-05-13T12:47:43.258Z,4.40
2019-05-13T12:50:13.855Z,6.10
2019-05-13T12:52:43.879Z,6.30
2019-05-13T12:55:13.970Z,7.10
2019-05-13T12:57:43.149Z,7.50
2019-05-13T13:00:13.221Z,8.60
2019-05-13T13:02:50.018Z,9.10
2019-05-13T13:05:19.934Z,9.50
2019-05-13T13:07:44.214Z,9.50
2019-05-13T13:10:14.570Z,9.90
2019-05-13T13:12:43.748Z,11.10
2019-05-13T13:15:36.471Z,10.90
2019-05-13T13:17:43.094Z,11.60
2019-05-13T13:22:43.301Z,11.90
2019-05-13T13:25:13.411Z,12.10
2019-05-13T13:28:09.500Z,12.60
2019-05-13T13:30:15.809Z,13.50
2019-05-13T13:32:45.619Z,12.90
2019-05-13T13:35:15.484Z,13.60
2019-05-13T13:37:45.929Z,13.90
2019-05-13T13:40:23.270Z,14.20
2019-05-13T13:42:45.790Z,14.90
2019-05-13T13:45:15.333Z,15.10
2019-05-13T13:47:45.810Z,15.10
2019-05-13T13:50:15.010Z,15.00
2019-05-13T13:52:45.694Z,15.10
2019-05-13T13:55:16.176Z,15.50
2019-05-13T13:57:45.299Z,16.10
2019-05-13T14:00:31.787Z,16.30
2019-05-13T14:02:45.509Z,16.50
2019-05-13T14:05:14.515Z,16.20
2019-05-13T14:06:52.389Z,12.00
2019-05-13T14:07:43.359Z,17.50
2019-05-13T14:10:12.507Z,16.50
2019-05-13T14:12:41.778Z,17.40
2019-05-13T14:15:10.889Z,16.50
2019-05-13T14:17:41.507Z,17.10
2019-05-13T14:20:10.729Z,17.50
2019-05-13T14:22:41.855Z,17.50
2019-05-13T14:25:11.520Z,17.70
2019-05-13T14:27:41.992Z,17.90
2019-05-13T14:30:11.767Z,18.10
2019-05-13T14:32:42.441Z,17.90
2019-05-13T14:35:12.310Z,18.10
2019-05-13T14:37:41.206Z,18.60
2019-05-13T14:40:12.126Z,18.20
2019-05-13T14:42:42.687Z,17.90
2019-05-13T14:45:12.353Z,19.90
2019-05-13T14:47:41.277Z,19.60
2019-05-13T14:50:12.168Z,19.20
2019-05-13T14:52:41.650Z,19.10
2019-05-13T14:55:10.730Z,18.30
2019-05-13T14:57:41.793Z,18.00
2019-05-13T15:00:11.078Z,18.20
2019-05-13T15:02:42.081Z,18.40
2019-05-13T15:05:11.938Z,17.20
2019-05-13T15:07:42.151Z,18.60
2019-05-13T15:10:12.509Z,19.40
2019-05-13T15:12:41.637Z,18.90
2019-05-13T15:15:12.691Z,20.10
2019-05-13T15:17:42.605Z,19.30
2019-05-13T15:20:12.377Z,19.70
2019-05-13T15:22:42.432Z,19.40
2019-05-13T15:25:11.742Z,19.30
2019-05-13T15:27:42.014Z,18.70
2019-05-13T15:30:17.387Z,18.70
2019-05-13T15:32:42.132Z,18.80
2019-05-13T15:35:14.328Z,18.90
2019-05-13T15:37:43.190Z,20.00
2019-05-13T15:40:12.646Z,19.90
2019-05-13T15:42:41.563Z,19.80
2019-05-13T15:45:12.514Z,20.50
2019-05-13T15:47:41.349Z,21.00
2019-05-13T15:50:12.444Z,20.30
2019-05-13T15:52:43.305Z,19.90
2019-05-13T15:55:12.104Z,20.50
2019-05-13T15:57:42.748Z,19.90
2019-05-13T16:00:12.809Z,19.70
2019-05-13T16:02:42.299Z,19.50
2019-05-13T16:05:12.159Z,20.00
2019-05-13T16:07:42.036Z,20.10
2019-05-13T16:10:11.496Z,19.40
2019-05-13T16:12:40.426Z,19.80
2019-05-13T16:15:15.299Z,19.70
2019-05-13T16:17:44.504Z,19.70
2019-05-13T16:20:11.290Z,19.70
2019-05-13T16:22:41.999Z,20.10
2019-05-13T16:25:12.139Z,19.70
2019-05-13T16:27:41.691Z,20.30
2019-05-13T16:30:11.817Z,19.90
2019-05-13T16:32:42.530Z,19.60
2019-05-13T16:35:13.568Z,20.50
2019-05-13T16:37:42.605Z,20.10
2019-05-13T16:40:11.998Z,20.40
2019-05-13T16:42:42.229Z,19.80
2019-05-13T16:45:12.484Z,19.80
2019-05-13T16:47:56.753Z,20.00
2019-05-13T16:50:12.668Z,20.20
2019-05-13T16:52:41.925Z,20.30
2019-05-13T16:55:12.892Z,20.30
2019-05-13T16:57:42.307Z,21.00
2019-05-13T17:00:11.765Z,21.00
2019-05-13T17:02:42.130Z,21.10
2019-05-13T17:05:12.845Z,21.40
2019-05-13T17:07:42.285Z,21.50
2019-05-13T17:10:12.684Z,21.30
2019-05-13T17:12:42.969Z,21.90
2019-05-13T17:15:12.158Z,21.40
2019-05-13T17:17:41.163Z,21.60
2019-05-13T17:20:12.685Z,21.50
2019-05-13T17:22:42.387Z,21.70
2019-05-13T17:25:12.687Z,22.20
2019-05-13T17:27:41.681Z,22.30
2019-05-13T17:30:11.541Z,22.00
2019-05-13T17:32:40.869Z,22.40
2019-05-13T17:35:11.534Z,22.20
2019-05-13T17:37:42.167Z,21.80
2019-05-13T17:40:11.826Z,22.10
2019-05-13T17:42:41.433Z,21.60
2019-05-13T17:45:11.769Z,21.60
2019-05-13T17:47:41.792Z,22.10
2019-05-13T17:50:11.850Z,22.10
2019-05-13T17:52:40.771Z,22.50
2019-05-13T17:55:11.753Z,22.70
2019-05-13T17:57:41.418Z,22.50
2019-05-13T18:00:11.738Z,22.60
2019-05-13T18:02:42.024Z,23.20
2019-05-13T18:05:12.042Z,23.40
2019-05-13T18:07:41.996Z,23.60
2019-05-13T18:10:14.545Z,23.40
2019-05-13T18:12:43.292Z,23.30
2019-05-13T18:15:12.734Z,23.40
2019-05-13T18:17:41.911Z,23.50
2019-05-13T18:20:11.686Z,24.80
2019-05-13T18:22:42.006Z,24.30
2019-05-13T18:25:12.207Z,24.10
2019-05-13T18:27:41.675Z,23.80
2019-05-13T18:30:11.548Z,23.90
2019-05-13T18:32:40.902Z,23.90
2019-05-13T18:35:12.077Z,23.80
2019-05-13T18:37:43.130Z,24.00
2019-05-13T18:40:12.306Z,24.50
2019-05-13T18:42:42.152Z,25.60
2019-05-13T18:45:11.908Z,25.60
2019-05-13T18:47:41.034Z,25.70
2019-05-13T18:50:11.755Z,27.90
2019-05-13T18:52:42.069Z,25.60
2019-05-13T18:55:12.472Z,26.40
2019-05-13T18:57:41.610Z,27.60
2019-05-13T19:00:11.299Z,28.40
2019-05-13T19:02:41.498Z,29.40
2019-05-13T19:05:11.910Z,29.60
2019-05-13T19:07:41.998Z,31.10
2019-05-13T19:10:11.622Z,31.60
2019-05-13T19:12:42.117Z,33.70
2019-05-13T19:15:11.529Z,33.90
2019-05-13T19:17:41.521Z,36.30
2019-05-13T19:20:11.612Z,38.20
2019-05-13T19:22:41.272Z,38.60
2019-05-13T19:25:11.940Z,39.10
2019-05-13T19:27:41.447Z,39.30
2019-05-13T19:30:12.190Z,40.30
2019-05-13T19:32:41.784Z,42.00
2019-05-13T19:35:11.732Z,42.60
2019-05-13T19:37:42.498Z,42.10
2019-05-13T19:40:13.011Z,45.00
2019-05-13T19:42:42.109Z,43.10
2019-05-13T19:45:11.345Z,45.30
2019-05-13T19:47:42.482Z,44.90
2019-05-13T19:50:11.590Z,46.50
2019-05-13T19:52:41.438Z,46.20
2019-05-13T19:55:12.041Z,46.20
2019-05-13T19:57:42.535Z,48.00
2019-05-13T20:00:14.154Z,47.20
2019-05-13T20:02:42.854Z,48.00
2019-05-13T20:05:11.811Z,49.50
2019-05-13T20:07:41.983Z,49.50
2019-05-13T20:10:11.872Z,50.40
2019-05-13T20:12:41.971Z,50.70
2019-05-13T20:15:11.700Z,51.20
2019-05-13T20:17:41.571Z,51.10
2019-05-13T20:20:12.446Z,52.10
2019-05-13T20:22:42.221Z,52.30
2019-05-13T20:25:13.147Z,51.80
2019-05-13T20:27:42.206Z,52.60
2019-05-13T20:30:11.646Z,54.10
2019-05-13T20:32:40.711Z,54.80
2019-05-13T20:35:11.531Z,54.30
2019-05-13T20:37:40.466Z,54.60
2019-05-13T20:40:11.414Z,55.30
2019-05-13T20:42:41.445Z,55.80
2019-05-13T20:45:11.521Z,56.10
2019-05-13T20:47:42.064Z,56.20
2019-05-13T20:50:12.353Z,57.10
2019-05-13T20:52:42.098Z,56.40
2019-05-13T20:55:11.170Z,57.20
2019-05-13T20:57:41.745Z,57.10
2019-05-13T21:00:11.029Z,57.60
2019-05-13T21:02:41.663Z,58.10
2019-05-13T21:05:12.085Z,58.20
2019-05-13T21:07:41.694Z,58.10
2019-05-13T21:10:12.126Z,58.20
2019-05-13T21:12:41.981Z,58.40
2019-05-13T21:15:13.055Z,59.60
2019-05-13T21:17:41.729Z,59.50
2019-05-13T21:20:19.532Z,59.60
2019-05-13T21:22:42.356Z,59.50
2019-05-13T21:25:11.663Z,60.10
2019-05-13T21:27:42.084Z,61.40
2019-05-13T21:30:11.942Z,60.10
2019-05-13T21:32:40.922Z,60.40
2019-05-13T21:35:11.845Z,61.50
2019-05-13T21:37:40.474Z,61.30
2019-05-13T21:40:11.161Z,62.00
2019-05-13T21:42:41.882Z,61.60
2019-05-13T21:45:11.333Z,63.30
2019-05-13T21:47:40.367Z,62.10
2019-05-13T21:50:11.574Z,62.30
2019-05-13T21:52:41.879Z,63.50
2019-05-13T21:55:11.466Z,63.60
2019-05-13T21:57:41.508Z,63.40
2019-05-13T22:00:15.265Z,63.30
2019-05-13T22:02:44.429Z,64.40
2019-05-13T22:05:13.463Z,64.50
2019-05-13T22:07:42.379Z,64.30
2019-05-13T22:10:11.720Z,64.70
2019-05-13T22:12:41.456Z,65.30
2019-05-13T22:15:11.294Z,65.10
2019-05-13T22:17:42.218Z,66.10
2019-05-13T22:20:12.187Z,65.30
2019-05-13T22:22:41.610Z,65.60
2019-05-13T22:25:12.157Z,65.80
2019-05-13T22:27:41.356Z,66.40
2019-05-13T22:30:11.853Z,67.00
2019-05-13T22:32:41.725Z,66.40
2019-05-13T22:35:11.364Z,66.70
2019-05-13T22:37:40.151Z,68.10
2019-05-13T22:40:11.307Z,67.30
2019-05-13T22:42:41.539Z,68.20
2019-05-13T22:45:11.670Z,67.80
2019-05-13T22:47:41.686Z,67.40
2019-05-13T22:50:11.612Z,68.90
2019-05-13T22:52:41.869Z,67.90
2019-05-13T22:55:11.646Z,69.00
2019-05-13T22:57:42.037Z,69.10
2019-05-13T23:00:11.910Z,68.80
2019-05-13T23:02:42.150Z,69.20
2019-05-13T23:05:11.545Z,69.20
2019-05-13T23:07:40.654Z,69.20
2019-05-13T23:10:11.623Z,70.00
2019-05-13T23:12:42.096Z,69.60
2019-05-13T23:15:11.976Z,70.00
2019-05-13T23:17:41.511Z,70.00
2019-05-13T23:20:10.729Z,70.00
2019-05-13T23:22:41.466Z,70.30
2019-05-13T23:25:12.137Z,71.20
2019-05-13T23:27:41.637Z,70.30
2019-05-13T23:30:11.664Z,72.00
2019-05-13T23:32:40.541Z,71.00
2019-05-13T23:35:11.191Z,71.60
2019-05-13T23:37:41.669Z,72.50
2019-05-13T23:40:11.867Z,71.70
2019-05-13T23:42:40.914Z,71.30
2019-05-13T23:45:11.451Z,72.00
2019-05-13T23:47:41.735Z,72.90
2019-05-13T23:50:12.438Z,72.30
2019-05-13T23:52:41.811Z,72.90
2019-05-13T23:55:11.138Z,72.60
2019-05-13T23:57:42.170Z,73.40
